.
WxDataArchive / Data Records for 2007-06-14
2007-06-13 June 2007 2007-06-15

Data Records for Thursday, 14 June 2007

Time	Temp	Chill	HIndex	Humid	Dewpt	 Wind 	HiWind	WindDir	Rain 	Barom 
-----	----	-----	------	-----	-----	------	------	-------	-----	----- 
00:00	66.4	66.4	66.4	73	57.5	0	0	---	0.00	29.965 
00:05	66.6	66.6	66.6	73	57.7	0	0	---	0.00	29.963 
00:10	66.4	66.4	66.4	73	57.5	0	0	---	0.00	29.962 
00:15	66.4	66.4	66.4	73	57.5	0	0	---	0.00	29.964 
00:20	66.4	66.4	66.4	73	57.5	0	0	---	0.00	29.963 
00:25	66.3	66.3	66.3	73	57.4	0	0	---	0.00	29.963 
00:30	66.3	66.3	66.3	73	57.4	0	0	---	0.00	29.960 
00:35	66.3	66.3	66.3	73	57.4	0	0	---	0.00	29.957 
00:40	66.1	66.1	66.1	73	57.2	0	0	---	0.00	29.955 
00:45	66.0	66.0	66.0	73	57.1	0	0	---	0.00	29.953 
00:50	65.8	65.8	65.8	73	56.9	0	0	---	0.00	29.953 
00:55	65.6	65.6	65.6	72	56.3	0	0	---	0.00	29.952 
01:00	65.3	65.3	65.3	73	56.4	0	0	---	0.00	29.952 
01:05	65.3	65.3	65.3	73	56.4	0	0	---	0.00	29.952 
01:10	65.2	65.2	65.2	73	56.3	0	0	---	0.00	29.952 
01:15	65.3	65.3	65.3	73	56.4	0	0	---	0.00	29.951 
01:20	65.3	65.3	65.3	72	56.0	0	0	---	0.00	29.952 
01:25	65.3	65.3	65.3	73	56.4	0	0	---	0.00	29.952 
01:30	65.2	65.2	65.2	72	55.9	0	0	---	0.00	29.952 
01:35	65.0	65.0	65.0	72	55.7	0	0	---	0.00	29.953 
01:40	64.8	64.8	64.8	72	55.6	0	0	---	0.00	29.952 
01:45	64.8	64.8	64.8	73	55.9	0	0	---	0.00	29.952 
01:50	64.8	64.8	64.8	73	55.9	0	0	---	0.00	29.952 
01:55	64.8	64.8	64.8	72	55.6	0	0	---	0.00	29.952 
02:00	65.0	65.0	65.0	72	55.7	0	0	---	0.00	29.951 
02:05	65.8	65.8	65.8	69	55.3	0	1	90	0.00	29.951 
02:10	66.6	66.6	66.6	67	55.3	0	1	90	0.00	29.951 
02:15	66.9	66.9	66.9	67	55.6	0	2	90	0.00	29.950 
02:20	67.1	67.1	67.1	67	55.8	0	1	90	0.00	29.951 
02:25	67.4	67.4	67.4	67	56.1	0	1	90	0.00	29.952 
02:30	67.6	67.6	67.6	66	55.8	0	1	90	0.00	29.949 
02:35	67.8	67.8	67.8	66	56.0	0	1	90	0.00	29.949 
02:40	67.9	67.9	67.9	65	55.7	0	2	90	0.00	29.950 
02:45	68.1	68.1	68.1	65	55.9	0	2	90	0.00	29.949 
02:50	67.9	67.9	67.9	66	56.1	0	0	---	0.00	29.949 
02:55	67.6	67.6	67.6	66	55.8	0	0	---	0.00	29.949 
03:00	67.3	67.3	67.3	67	56.0	0	0	---	0.00	29.950 
03:05	66.9	66.9	66.9	68	56.0	0	0	---	0.00	29.949 
03:10	66.4	66.4	66.4	69	55.9	0	0	---	0.00	29.949 
03:15	66.3	66.3	66.3	69	55.8	0	0	---	0.00	29.952 
03:20	66.0	66.0	66.0	70	55.9	0	0	---	0.00	29.952 
03:25	65.6	65.6	65.6	71	55.9	0	0	---	0.00	29.952 
03:30	65.3	65.3	65.3	72	56.0	0	0	---	0.00	29.951 
03:35	64.8	64.8	64.8	72	55.6	0	0	---	0.00	29.952 
03:40	64.5	64.5	64.5	73	55.6	0	0	---	0.00	29.952 
03:45	64.2	64.2	64.2	74	55.7	0	0	---	0.00	29.954 
03:50	63.7	63.7	63.7	75	55.6	0	0	---	0.00	29.955 
03:55	63.4	63.4	63.4	77	56.1	0	0	---	0.00	29.955 
04:00	63.1	63.1	63.1	79	56.5	0	0	---	0.00	29.954 
04:05	62.7	62.7	62.7	80	56.4	0	0	---	0.00	29.955 
04:10	62.6	62.6	62.6	80	56.3	0	0	---	0.00	29.956 
04:15	62.3	62.3	62.3	81	56.4	0	0	---	0.00	29.958 
04:20	62.1	62.1	62.1	81	56.2	0	0	---	0.00	29.958 
04:25	61.8	61.8	61.8	82	56.2	0	0	---	0.00	29.959 
04:30	61.8	61.8	61.8	82	56.2	0	0	---	0.00	29.961 
04:35	61.5	61.5	61.5	82	55.9	0	0	---	0.00	29.964 
04:40	61.3	61.3	61.3	83	56.1	0	0	---	0.00	29.963 
04:45	61.2	61.2	61.2	83	56.0	0	0	---	0.00	29.966 
04:50	61.0	61.0	61.0	84	56.1	0	0	---	0.00	29.968 
04:55	60.9	60.9	60.9	84	56.0	0	0	---	0.00	29.969 
05:00	60.9	60.9	60.9	85	56.4	0	0	---	0.00	29.970 
05:05	60.7	60.7	60.7	85	56.2	0	0	---	0.00	29.971 
05:10	60.7	60.7	60.7	86	56.5	0	0	---	0.00	29.971 
05:15	60.5	60.5	60.5	86	56.3	0	0	---	0.00	29.972 
05:20	60.5	60.5	60.5	86	56.3	0	0	---	0.00	29.974 
05:25	60.5	60.5	60.5	86	56.3	0	0	---	0.00	29.976 
05:30	60.5	60.5	60.5	86	56.3	0	0	---	0.00	29.975 
05:35	60.5	60.5	60.5	87	56.6	0	0	---	0.00	29.975 
05:40	60.5	60.5	60.5	87	56.6	0	0	---	0.00	29.976 
05:45	60.7	60.7	60.7	87	56.8	0	0	---	0.00	29.976 
05:50	60.9	60.9	60.9	87	57.0	0	0	---	0.00	29.979 
05:55	60.9	60.9	60.9	87	57.0	0	0	---	0.00	29.981 
06:00	61.0	61.0	61.0	87	57.1	0	0	---	0.00	29.983 
06:05	61.3	61.3	61.3	87	57.4	0	0	---	0.00	29.986 
06:10	61.8	61.8	61.8	87	57.9	0	0	---	0.00	29.988 
06:15	62.3	62.3	62.3	86	58.1	0	0	---	0.00	29.987 
06:20	62.7	62.7	62.7	85	58.1	0	0	---	0.00	29.986 
06:25	63.2	63.2	63.2	84	58.3	0	0	---	0.00	29.987 
06:30	64.0	64.0	64.0	82	58.4	0	0	---	0.00	29.987 
06:35	65.0	65.0	65.0	81	59.0	0	0	---	0.00	29.986 
06:40	65.6	65.6	65.6	80	59.3	0	0	---	0.00	29.987 
06:45	66.8	66.8	66.8	77	59.3	0	0	---	0.00	29.985 
06:50	68.1	68.1	68.1	73	59.1	0	1	90	0.00	29.986 
06:55	69.4	69.4	69.4	70	59.2	0	1	90	0.00	29.985 
07:00	70.6	70.6	70.6	67	59.1	0	2	90	0.00	29.986 
07:05	71.5	71.5	71.5	66	59.5	0	2	90	0.00	29.994 
07:10	72.3	72.3	72.3	64	59.4	1	2	90	0.00	29.996 
07:15	72.8	72.8	72.8	63	59.5	0	2	90	0.00	29.997 
07:20	73.3	73.3	73.3	61	59.0	0	1	90	0.00	29.997 
07:25	74.0	74.0	74.0	60	59.2	0	2	90	0.00	29.998 
07:30	74.6	74.6	74.6	60	59.8	1	2	90	0.00	29.998 
07:35	74.7	74.7	74.7	59	59.4	1	3	90	0.00	29.995 
07:40	74.7	74.7	74.7	60	59.9	1	2	90	0.00	29.993 
07:45	75.1	75.1	77.4	60	60.2	1	3	90	0.00	29.993 
07:50	75.4	75.4	77.6	59	60.1	1	3	90	0.00	29.992 
07:55	75.6	75.6	77.7	60	60.7	1	3	90	0.00	29.990 
08:00	76.0	76.0	78.0	59	60.6	1	2	90	0.00	29.990 
08:05	76.5	76.5	78.4	57	60.1	0	3	90	0.00	29.993 
08:10	76.8	76.8	78.6	56	59.9	1	3	90	0.00	29.989 
08:15	77.2	77.2	78.9	55	59.8	1	3	90	0.00	29.985 
08:20	77.6	77.6	79.2	55	60.1	1	4	90	0.00	29.984 
08:25	77.9	77.9	79.3	54	59.9	1	3	90	0.00	29.984 
08:30	77.9	77.9	79.3	54	59.9	2	5	90	0.00	29.984 
08:35	78.1	78.1	79.5	53	59.6	2	3	112	0.00	29.985 
08:40	78.3	78.3	79.6	53	59.7	1	4	90	0.00	29.985 
08:45	78.3	78.3	79.7	55	60.8	2	4	90	0.00	29.986 
08:50	78.5	78.5	79.8	54	60.4	1	4	90	0.00	29.987 
08:55	78.8	78.8	80.1	54	60.7	1	5	112	0.00	29.983 
09:00	79.4	79.4	80.6	54	61.3	1	3	112	0.00	29.983 
09:05	79.8	79.8	80.9	53	61.1	1	5	112	0.00	29.985 
09:10	79.8	79.8	80.8	52	60.6	2	6	112	0.00	29.985 
09:15	79.8	79.8	80.6	50	59.5	1	5	90	0.00	29.983 
09:20	80.1	80.1	81.0	51	60.3	1	4	90	0.00	29.982 
09:25	80.7	80.7	81.2	48	59.2	1	3	90	0.00	29.981 
09:30	81.2	81.2	81.7	48	59.6	1	3	90	0.00	29.982 
09:35	81.4	81.4	81.9	48	59.8	2	4	90	0.00	29.982 
09:40	81.4	81.4	81.9	48	59.8	2	4	90	0.00	29.982 
09:45	81.4	81.4	81.6	46	58.6	1	4	90	0.00	29.981 
09:50	81.2	81.2	81.8	49	60.2	2	4	112	0.00	29.982 
09:55	81.2	81.2	81.7	48	59.6	1	3	90	0.00	29.981 
10:00	81.8	81.8	81.9	45	58.4	1	4	90	0.00	29.980 
10:05	82.4	82.4	82.9	48	60.7	1	4	90	0.00	29.980 
10:10	83.2	83.2	83.3	45	59.6	0	2	135	0.00	29.978 
10:15	83.6	83.6	83.9	46	60.6	2	5	112	0.00	29.977 
10:20	84.0	84.0	84.0	44	59.7	1	5	112	0.00	29.977 
10:25	84.1	84.1	84.4	46	61.1	1	4	90	0.00	29.977 
10:30	84.3	84.3	84.3	44	60.0	1	3	90	0.00	29.975 
10:35	84.5	84.5	84.1	42	58.9	2	5	90	0.00	29.977 
10:40	84.5	84.5	84.0	41	58.2	2	6	90	0.00	29.977 
10:45	84.9	84.9	84.8	43	59.9	1	3	112	0.00	29.974 
10:50	85.1	85.1	84.6	41	58.7	1	4	112	0.00	29.972 
10:55	84.9	84.9	84.8	43	59.9	0	2	292	0.00	29.971 
11:00	85.3	85.3	84.7	40	58.2	2	5	112	0.00	29.970 
11:05	85.5	85.5	84.7	39	57.7	1	4	112	0.00	29.971 
11:10	85.7	85.7	84.9	39	57.9	1	4	90	0.00	29.969 
11:15	86.3	86.3	85.8	40	59.1	1	7	90	0.00	29.969 
11:20	86.1	86.1	85.6	40	58.9	2	7	112	0.00	29.968 
11:25	86.3	86.3	85.8	40	59.1	1	2	112	0.00	29.967 
11:30	87.0	87.0	86.6	40	59.7	1	5	112	0.00	29.965 
11:35	87.4	87.4	87.4	41	60.8	1	5	90	0.00	29.965 
11:40	87.6	87.6	86.7	37	58.1	1	3	112	0.00	29.963 
11:45	87.6	87.6	86.2	35	56.5	2	6	90	0.00	29.962 
11:50	87.8	87.8	87.6	40	60.4	1	3	90	0.00	29.960 
11:55	88.0	88.0	86.7	35	56.9	2	4	68	0.00	29.961 
12:00	87.8	87.8	86.7	36	57.5	2	5	90	0.00	29.962 
12:05	88.2	88.2	87.2	36	57.8	1	3	45	0.00	29.963 
12:10	88.6	88.6	87.6	36	58.2	1	3	68	0.00	29.961 
12:15	88.4	88.4	87.9	38	59.5	1	5	112	0.00	29.956 
12:20	88.6	88.6	86.7	32	54.9	1	4	112	0.00	29.954 
12:25	88.4	88.4	87.2	35	57.2	2	5	112	0.00	29.953 
12:30	88.0	88.0	86.7	35	56.9	2	7	112	0.00	29.953 
12:35	88.4	88.4	87.6	37	58.8	1	4	90	0.00	29.952 
12:40	88.6	88.6	87.6	36	58.2	0	2	135	0.00	29.951 
12:45	89.0	89.0	87.7	34	56.9	2	5	112	0.00	29.950 
12:50	89.0	89.0	87.4	33	56.1	2	4	112	0.00	29.949 
12:55	89.0	89.0	87.0	31	54.4	2	7	112	0.00	29.948 
13:00	89.3	89.3	88.8	37	59.6	2	6	112	0.00	29.944 
13:05	88.8	88.8	87.2	33	55.9	3	7	90	0.00	29.946 
13:10	88.6	88.6	86.6	31	54.1	3	9	90	0.00	29.945 
13:15	88.8	88.8	86.8	31	54.2	2	5	90	0.00	29.944 
13:20	89.3	89.3	88.0	34	57.2	1	4	90	0.00	29.942 
13:25	89.0	89.0	87.0	31	54.4	2	5	90	0.00	29.940 
13:30	88.8	88.8	86.8	31	54.2	2	6	90	0.00	29.938 
13:35	88.8	88.8	87.0	32	55.1	2	7	90	0.00	29.937 
13:40	89.0	89.0	87.2	32	55.3	2	5	90	0.00	29.937 
13:45	89.3	89.3	87.6	32	55.5	3	9	112	0.00	29.936 
13:50	89.3	89.3	87.6	32	55.5	2	7	112	0.00	29.933 
13:55	89.9	89.9	88.0	31	55.2	3	6	90	0.00	29.935 
14:00	89.5	89.5	87.6	31	54.8	4	7	90	0.00	29.936 
14:05	89.3	89.3	87.3	31	54.7	3	6	112	0.00	29.932 
14:10	88.8	88.8	87.2	33	55.9	2	5	90	0.00	29.932 
14:15	89.0	89.0	87.2	32	55.3	3	8	90	0.00	29.931 
14:20	89.3	89.3	87.6	32	55.5	4	10	90	0.00	29.930 
14:25	89.0	89.0	87.4	33	56.1	3	8	112	0.00	29.928 
14:30	88.4	88.4	86.5	32	54.7	2	4	112	0.00	29.928 
14:35	88.0	88.0	86.3	33	55.2	3	7	112	0.00	29.925 
14:40	87.8	87.8	86.1	33	55.1	2	5	90	0.00	29.925 
14:45	88.6	88.6	87.2	34	56.6	2	6	112	0.00	29.925 
14:50	89.0	89.0	87.0	31	54.4	3	5	112	0.00	29.924 
14:55	88.4	88.4	86.3	31	53.9	2	5	90	0.00	29.924 
15:00	87.6	87.6	85.7	32	54.1	2	4	90	0.00	29.922 
15:05	87.2	87.2	85.4	33	54.6	1	4	90	0.00	29.923 
15:10	87.0	87.0	85.6	35	56.0	3	6	90	0.00	29.924 
15:15	87.0	87.0	85.2	33	54.4	2	5	112	0.00	29.925 
15:20	86.7	86.7	85.4	36	56.5	3	9	90	0.00	29.924 
15:25	86.5	86.5	85.0	35	55.6	2	6	90	0.00	29.923 
15:30	87.0	87.0	85.2	33	54.4	2	7	90	0.00	29.923 
15:35	87.2	87.2	85.4	33	54.6	1	4	112	0.00	29.923 
15:40	87.0	87.0	86.0	37	57.5	1	4	112	0.00	29.923 
15:45	86.5	86.5	85.2	36	56.3	2	3	112	0.00	29.923 
15:50	85.5	85.5	86.4	47	62.9	1	5	90	0.00	29.925 
15:55	83.2	83.2	84.7	53	64.3	1	3	112	0.01	29.925 
16:00	81.4	81.4	83.1	57	64.7	0	0	---	0.00	29.924 
16:05	80.3	80.3	82.2	60	65.1	0	0	---	0.00	29.922 
16:10	80.1	80.1	82.4	64	66.8	0	0	---	0.00	29.923 
16:15	81.1	81.1	82.9	58	64.9	0	2	90	0.00	29.921 
16:20	82.6	82.6	83.3	49	61.5	1	3	112	0.00	29.921 
16:25	83.8	83.8	84.3	47	61.4	1	3	112	0.00	29.918 
16:30	84.3	84.3	84.5	45	60.6	1	6	90	0.00	29.918 
16:35	84.9	84.9	85.0	44	60.5	2	4	90	0.00	29.914 
16:40	85.5	85.5	84.7	39	57.7	3	7	112	0.00	29.915 
16:45	85.9	85.9	84.9	38	57.3	2	5	90	0.00	29.913 
16:50	85.7	85.7	84.9	39	57.9	2	3	90	0.00	29.912 
16:55	85.7	85.7	84.7	38	57.1	2	5	90	0.00	29.911 
17:00	86.1	86.1	84.8	36	56.0	3	11	112	0.00	29.912 
17:05	85.9	85.9	84.9	38	57.3	5	13	90	0.00	29.914 
17:10	85.1	85.1	84.1	38	56.6	4	11	90	0.00	29.912 
17:15	84.5	84.5	83.6	39	56.8	4	10	90	0.00	29.911 
17:20	84.7	84.7	83.8	39	57.0	5	10	112	0.00	29.911 
17:25	85.1	85.1	84.3	39	57.3	4	7	112	0.00	29.911 
17:30	85.1	85.1	84.3	39	57.3	4	9	90	0.00	29.910 
17:35	85.1	85.1	84.3	39	57.3	4	8	90	0.00	29.911 
17:40	84.9	84.9	84.0	39	57.1	4	10	90	0.00	29.912 
17:45	84.7	84.7	84.2	41	58.4	4	9	90	0.00	29.912 
17:50	84.7	84.7	84.2	41	58.4	3	6	90	0.00	29.912 
17:55	84.5	84.5	83.8	40	57.5	3	7	112	0.00	29.912 
18:00	84.5	84.5	84.1	42	58.9	2	5	90	0.00	29.911 
18:05	84.5	84.5	83.8	40	57.5	3	5	112	0.00	29.904 
18:10	84.5	84.5	83.5	38	56.1	3	10	90	0.00	29.905 
18:15	84.3	84.3	83.4	39	56.6	3	10	112	0.00	29.907 
18:20	84.1	84.1	83.2	39	56.4	3	5	90	0.00	29.908 
18:25	83.8	83.8	83.1	40	56.9	4	11	90	0.00	29.911 
18:30	83.4	83.4	82.7	40	56.5	5	10	90	0.00	29.911 
18:35	83.0	83.0	82.3	40	56.2	4	9	90	0.00	29.911 
18:40	82.8	82.8	82.3	41	56.7	4	7	90	0.00	29.915 
18:45	82.6	82.6	82.1	41	56.5	3	7	90	0.00	29.915 
18:50	82.2	82.2	81.9	42	56.8	2	5	90	0.00	29.917 
18:55	82.0	82.0	81.7	42	56.6	3	7	90	0.00	29.918 
19:00	81.8	81.8	81.5	42	56.4	3	5	90	0.00	29.919 
19:05	81.6	81.6	81.3	42	56.3	3	6	90	0.00	29.917 
19:10	81.4	81.4	81.3	43	56.7	3	6	90	0.00	29.918 
19:15	81.1	81.1	81.0	43	56.5	2	5	90	0.00	29.919 
19:20	80.9	80.9	80.9	43	56.3	2	4	90	0.00	29.920 
19:25	80.5	80.5	80.6	43	55.9	2	5	90	0.00	29.920 
19:30	80.3	80.3	80.4	43	55.7	2	6	90	0.00	29.919 
19:35	80.1	80.1	80.3	43	55.6	2	6	90	0.00	29.919 
19:40	79.9	79.9	80.1	43	55.4	2	4	68	0.00	29.920 
19:45	79.6	79.6	80.0	44	55.7	2	5	68	0.00	29.920 
19:50	79.2	79.2	79.8	45	56.0	2	3	90	0.00	29.923 
19:55	79.0	79.0	79.6	45	55.8	2	5	90	0.00	29.923 
20:00	78.6	78.6	79.4	46	56.1	1	3	90	0.00	29.924 
20:05	78.3	78.3	79.3	47	56.4	0	2	90	0.00	29.923 
20:10	77.9	77.9	79.0	46	55.4	2	3	90	0.00	29.922 
20:15	77.7	77.7	78.9	46	55.2	1	3	90	0.00	29.923 
20:20	77.6	77.6	78.8	46	55.2	1	2	90	0.00	29.925 
20:25	77.4	77.4	78.7	46	55.0	1	2	90	0.00	29.924 
20:30	77.2	77.2	78.6	46	54.8	1	2	90	0.00	29.926 
20:35	77.0	77.0	78.5	47	55.2	1	2	90	0.00	29.926 
20:40	76.8	76.8	78.4	48	55.6	1	3	90	0.00	29.927 
20:45	76.5	76.5	78.3	48	55.3	1	2	90	0.00	29.927 
20:50	76.1	76.1	78.1	48	55.0	1	3	90	0.00	29.927 
20:55	75.8	75.8	78.0	49	55.3	1	2	90	0.00	29.926 
21:00	75.6	75.6	77.9	50	55.6	1	3	90	0.00	29.930 
21:05	75.3	75.3	77.7	50	55.4	1	3	90	0.00	29.932 
21:10	75.1	75.1	77.7	50	55.2	1	2	90	0.00	29.934 
21:15	74.9	74.9	74.9	50	55.0	1	2	90	0.00	29.935 
21:20	74.6	74.6	74.6	51	55.3	0	2	90	0.00	29.935 
21:25	74.6	74.6	74.6	52	55.8	1	2	90	0.00	29.935 
21:30	74.4	74.4	74.4	52	55.6	1	3	90	0.00	29.937 
21:35	74.0	74.0	74.0	52	55.2	0	2	90	0.00	29.940 
21:40	73.9	73.9	73.9	53	55.7	0	2	90	0.00	29.941 
21:45	73.5	73.5	73.5	53	55.3	1	3	90	0.00	29.941 
21:50	73.5	73.5	73.5	53	55.3	1	3	90	0.00	29.944 
21:55	73.5	73.5	73.5	53	55.3	1	2	90	0.00	29.946 
22:00	73.3	73.3	73.3	52	54.6	1	2	90	0.00	29.947 
22:05	73.3	73.3	73.3	52	54.6	0	2	90	0.00	29.947 
22:10	73.3	73.3	73.3	52	54.6	1	2	90	0.00	29.947 
22:15	73.2	73.2	73.2	52	54.5	1	2	90	0.00	29.948 
22:20	73.0	73.0	73.0	53	54.8	0	1	90	0.00	29.949 
22:25	72.7	72.7	72.7	53	54.6	0	2	90	0.00	29.949 
22:30	72.3	72.3	72.3	54	54.7	0	1	90	0.00	29.948 
22:35	72.1	72.1	72.1	54	54.5	0	1	90	0.00	29.950 
22:40	71.8	71.8	71.8	54	54.2	0	1	90	0.00	29.950 
22:45	71.5	71.5	71.5	54	54.0	0	1	90	0.00	29.950 
22:50	71.3	71.3	71.3	54	53.8	0	2	90	0.00	29.951 
22:55	71.3	71.3	71.3	54	53.8	0	2	90	0.00	29.952 
23:00	70.9	70.9	70.9	55	53.9	0	1	90	0.00	29.953 
23:05	70.8	70.8	70.8	54	53.3	0	1	90	0.00	29.951 
23:10	70.6	70.6	70.6	55	53.6	0	1	90	0.00	29.951 
23:15	70.3	70.3	70.3	55	53.4	0	1	90	0.00	29.951 
23:20	69.8	69.8	69.8	55	52.9	0	0	---	0.00	29.951 
23:25	69.4	69.4	69.4	56	53.0	0	0	---	0.00	29.952 
23:30	68.9	68.9	68.9	57	53.0	0	0	---	0.00	29.951 
23:35	68.4	68.4	68.4	58	53.0	0	0	---	0.00	29.951 
23:40	68.1	68.1	68.1	59	53.2	0	0	---	0.00	29.950 
23:45	67.8	67.8	67.8	60	53.4	0	0	---	0.00	29.950 
23:50	67.4	67.4	67.4	61	53.5	0	0	---	0.00	29.951 
23:55	67.3	67.3	67.3	59	52.5	0	1	90	0.00	29.951 

CoCoRaHS
IN-AL-39
A2 Web Hosting
Creative Commons License
GoDaddy
Look for:

loaded 2017-10-19 14:27:00 • last modified 2010-11-18 10:43:29
Privacy PolicyDisclaimer
• wx.awcolley.com is powered by PmWiki v.2002016 •
• all content (unless otherwise noted) © 2017 A W Colley